sensor_id;sensor_type;location;lat;lon;timestamp;P1;P2;P0
72509;PMS5003;60532;56.114;40.350;2023-04-28T00:01:44;11.80;11.80;8.20
72509;PMS5003;60532;56.114;40.350;2023-04-28T00:03:45;14.00;13.00;6.75
72509;PMS5003;60532;56.114;40.350;2023-04-28T00:05:46;16.00;16.00;7.50
72509;PMS5003;60532;56.114;40.350;2023-04-28T00:07:47;16.60;16.60;9.00
72509;PMS5003;60532;56.114;40.350;2023-04-28T00:09:47;14.75;14.75;8.00
72509;PMS5003;60532;56.114;40.350;2023-04-28T00:11:48;14.00;14.00;8.00
72509;PMS5003;60532;56.114;40.350;2023-04-28T00:13:48;12.00;10.25;7.00
72509;PMS5003;60532;56.114;40.350;2023-04-28T00:15:49;17.50;15.25;8.75
72509;PMS5003;60532;56.114;40.350;2023-04-28T00:17:51;16.00;15.60;9.00
72509;PMS5003;60532;56.114;40.350;2023-04-28T00:19:53;16.60;15.20;10.20
72509;PMS5003;60532;56.114;40.350;2023-04-28T00:21:53;10.00;10.00;8.50
72509;PMS5003;60532;56.114;40.350;2023-04-28T00:23:54;14.50;14.50;8.25
72509;PMS5003;60532;56.114;40.350;2023-04-28T00:25:55;16.00;16.00;9.25
72509;PMS5003;60532;56.114;40.350;2023-04-28T00:27:56;16.20;15.80;10.00
72509;PMS5003;60532;56.114;40.350;2023-04-28T00:29:57;15.00;12.50;6.50
72509;PMS5003;60532;56.114;40.350;2023-04-28T00:31:57;15.50;15.50;8.00
72509;PMS5003;60532;56.114;40.350;2023-04-28T00:33:58;14.00;14.00;9.00
72509;PMS5003;60532;56.114;40.350;2023-04-28T00:35:58;18.00;16.00;10.00
72509;PMS5003;60532;56.114;40.350;2023-04-28T00:37:59;14.40;14.40;9.40
72509;PMS5003;60532;56.114;40.350;2023-04-28T00:40:00;19.50;15.25;8.75
72509;PMS5003;60532;56.114;40.350;2023-04-28T00:42:01;16.75;14.75;7.50
72509;PMS5003;60532;56.114;40.350;2023-04-28T00:44:03;17.40;17.40;9.60
72509;PMS5003;60532;56.114;40.350;2023-04-28T00:46:03;16.00;15.25;9.00
72509;PMS5003;60532;56.114;40.350;2023-04-28T00:48:04;17.50;17.50;9.00
72509;PMS5003;60532;56.114;40.350;2023-04-28T00:50:05;19.80;19.80;11.00
72509;PMS5003;60532;56.114;40.350;2023-04-28T00:52:05;16.00;16.00;10.50
72509;PMS5003;60532;56.114;40.350;2023-04-28T00:54:06;16.00;16.00;9.25
72509;PMS5003;60532;56.114;40.350;2023-04-28T00:56:07;15.80;14.60;8.20
72509;PMS5003;60532;56.114;40.350;2023-04-28T00:58:08;16.00;15.00;11.25
72509;PMS5003;60532;56.114;40.350;2023-04-28T01:00:09;19.25;16.75;11.00
72509;PMS5003;60532;56.114;40.350;2023-04-28T01:02:09;21.80;19.60;12.20
72509;PMS5003;60532;56.114;40.350;2023-04-28T01:04:17;18.80;17.40;10.20
72509;PMS5003;60532;56.114;40.350;2023-04-28T01:06:19;15.20;13.40;8.00
72509;PMS5003;60532;56.114;40.350;2023-04-28T01:08:37;17.75;17.75;10.25
72509;PMS5003;60532;56.114;40.350;2023-04-28T01:10:42;18.20;15.80;9.80
72509;PMS5003;60532;56.114;40.350;2023-04-28T01:12:42;19.00;17.60;10.60
72509;PMS5003;60532;56.114;40.350;2023-04-28T01:14:43;18.00;17.00;10.00
72509;PMS5003;60532;56.114;40.350;2023-04-28T01:16:43;20.50;18.50;11.00
72509;PMS5003;60532;56.114;40.350;2023-04-28T01:18:45;19.00;17.25;10.75
72509;PMS5003;60532;56.114;40.350;2023-04-28T01:20:47;20.80;16.20;11.40
72509;PMS5003;60532;56.114;40.350;2023-04-28T01:22:47;19.25;18.00;12.00
72509;PMS5003;60532;56.114;40.350;2023-04-28T01:24:47;16.75;16.75;9.25
72509;PMS5003;60532;56.114;40.350;2023-04-28T01:26:48;19.25;17.25;11.75
72509;PMS5003;60532;56.114;40.350;2023-04-28T01:28:48;19.75;19.75;12.00
72509;PMS5003;60532;56.114;40.350;2023-04-28T01:30:49;17.25;14.00;9.25
72509;PMS5003;60532;56.114;40.350;2023-04-28T01:32:49;15.00;14.75;8.00
72509;PMS5003;60532;56.114;40.350;2023-04-28T01:34:50;16.00;15.00;7.00
72509;PMS5003;60532;56.114;40.350;2023-04-28T01:36:51;15.50;15.50;10.00
72509;PMS5003;60532;56.114;40.350;2023-04-28T01:38:51;18.75;17.00;12.75
72509;PMS5003;60532;56.114;40.350;2023-04-28T01:40:53;18.50;16.50;9.00
72509;PMS5003;60532;56.114;40.350;2023-04-28T01:42:53;15.00;13.80;10.80
72509;PMS5003;60532;56.114;40.350;2023-04-28T01:44:53;17.00;16.25;11.50
72509;PMS5003;60532;56.114;40.350;2023-04-28T01:46:54;15.00;12.50;7.50
72509;PMS5003;60532;56.114;40.350;2023-04-28T01:48:55;18.40;16.80;10.00
72509;PMS5003;60532;56.114;40.350;2023-04-28T01:50:55;14.50;14.50;8.00
72509;PMS5003;60532;56.114;40.350;2023-04-28T01:52:56;13.50;13.00;7.00
72509;PMS5003;60532;56.114;40.350;2023-04-28T01:54:56;16.75;15.25;10.50
72509;PMS5003;60532;56.114;40.350;2023-04-28T01:56:56;17.50;17.50;10.00
72509;PMS5003;60532;56.114;40.350;2023-04-28T01:58:57;15.75;15.75;8.25
72509;PMS5003;60532;56.114;40.350;2023-04-28T02:00:57;15.75;15.75;9.50
72509;PMS5003;60532;56.114;40.350;2023-04-28T02:02:58;18.00;15.00;8.75
72509;PMS5003;60532;56.114;40.350;2023-04-28T02:04:58;14.75;14.50;9.00
72509;PMS5003;60532;56.114;40.350;2023-04-28T02:06:59;16.00;15.50;9.75
72509;PMS5003;60532;56.114;40.350;2023-04-28T02:08:59;17.50;17.25;10.50
72509;PMS5003;60532;56.114;40.350;2023-04-28T02:11:00;19.25;16.50;10.00
72509;PMS5003;60532;56.114;40.350;2023-04-28T02:13:00;15.50;15.50;8.00
72509;PMS5003;60532;56.114;40.350;2023-04-28T02:15:01;19.75;16.25;10.25
72509;PMS5003;60532;56.114;40.350;2023-04-28T02:17:01;18.75;18.25;10.25
72509;PMS5003;60532;56.114;40.350;2023-04-28T02:19:05;18.40;18.40;11.80
72509;PMS5003;60532;56.114;40.350;2023-04-28T02:21:09;23.25;19.75;12.75
72509;PMS5003;60532;56.114;40.350;2023-04-28T02:23:12;16.80;15.60;11.80
72509;PMS5003;60532;56.114;40.350;2023-04-28T02:25:12;19.25;19.25;11.25
72509;PMS5003;60532;56.114;40.350;2023-04-28T02:27:13;21.00;18.50;12.25
72509;PMS5003;60532;56.114;40.350;2023-04-28T02:29:13;20.25;18.75;10.25
72509;PMS5003;60532;56.114;40.350;2023-04-28T02:31:14;18.25;18.25;10.00
72509;PMS5003;60532;56.114;40.350;2023-04-28T02:33:15;19.25;18.50;13.00
72509;PMS5003;60532;56.114;40.350;2023-04-28T02:35:15;19.50;16.75;10.00
72509;PMS5003;60532;56.114;40.350;2023-04-28T02:37:16;17.00;17.00;10.50
72509;PMS5003;60532;56.114;40.350;2023-04-28T02:39:16;20.50;18.75;13.00
72509;PMS5003;60532;56.114;40.350;2023-04-28T02:41:17;18.00;17.75;12.75
72509;PMS5003;60532;56.114;40.350;2023-04-28T02:43:18;20.00;18.75;13.00
72509;PMS5003;60532;56.114;40.350;2023-04-28T02:45:18;21.00;18.75;12.00
72509;PMS5003;60532;56.114;40.350;2023-04-28T02:47:18;19.00;18.75;12.25
72509;PMS5003;60532;56.114;40.350;2023-04-28T02:49:19;17.50;17.50;10.25
72509;PMS5003;60532;56.114;40.350;2023-04-28T02:51:19;15.50;15.50;7.25
72509;PMS5003;60532;56.114;40.350;2023-04-28T02:53:20;17.25;17.25;11.75
72509;PMS5003;60532;56.114;40.350;2023-04-28T02:55:21;17.40;16.20;9.80
72509;PMS5003;60532;56.114;40.350;2023-04-28T02:57:23;18.20;18.20;10.60
72509;PMS5003;60532;56.114;40.350;2023-04-28T02:59:23;19.00;17.50;10.00
72509;PMS5003;60532;56.114;40.350;2023-04-28T03:01:24;21.75;19.50;9.50
72509;PMS5003;60532;56.114;40.350;2023-04-28T03:03:25;15.00;15.00;10.00
72509;PMS5003;60532;56.114;40.350;2023-04-28T03:05:25;16.00;16.00;11.00
72509;PMS5003;60532;56.114;40.350;2023-04-28T03:07:27;20.20;19.60;10.80
72509;PMS5003;60532;56.114;40.350;2023-04-28T03:09:27;16.00;15.00;9.00
72509;PMS5003;60532;56.114;40.350;2023-04-28T03:11:28;18.50;17.00;12.50
72509;PMS5003;60532;56.114;40.350;2023-04-28T03:13:28;16.75;16.75;10.00
72509;PMS5003;60532;56.114;40.350;2023-04-28T03:15:29;18.25;18.25;11.25
72509;PMS5003;60532;56.114;40.350;2023-04-28T03:17:29;15.00;13.75;9.25
72509;PMS5003;60532;56.114;40.350;2023-04-28T03:19:30;14.80;14.80;8.00
72509;PMS5003;60532;56.114;40.350;2023-04-28T03:21:32;19.20;17.80;11.00
72509;PMS5003;60532;56.114;40.350;2023-04-28T03:23:33;18.00;16.50;12.00
72509;PMS5003;60532;56.114;40.350;2023-04-28T03:25:33;17.50;16.50;9.50
72509;PMS5003;60532;56.114;40.350;2023-04-28T03:27:34;20.50;18.00;11.00
72509;PMS5003;60532;56.114;40.350;2023-04-28T03:29:34;13.25;11.75;6.25
72509;PMS5003;60532;56.114;40.350;2023-04-28T03:31:35;16.50;14.50;8.25
72509;PMS5003;60532;56.114;40.350;2023-04-28T03:33:35;19.00;18.25;11.50
72509;PMS5003;60532;56.114;40.350;2023-04-28T03:35:36;19.50;18.25;10.25
72509;PMS5003;60532;56.114;40.350;2023-04-28T03:37:36;16.50;16.00;11.00
72509;PMS5003;60532;56.114;40.350;2023-04-28T03:39:37;20.60;17.60;10.20
72509;PMS5003;60532;56.114;40.350;2023-04-28T03:41:38;10.75;10.75;9.50
72509;PMS5003;60532;56.114;40.350;2023-04-28T03:43:38;15.25;15.25;10.25
72509;PMS5003;60532;56.114;40.350;2023-04-28T03:45:39;18.00;15.00;8.25
72509;PMS5003;60532;56.114;40.350;2023-04-28T03:47:39;17.50;15.50;9.50
72509;PMS5003;60532;56.114;40.350;2023-04-28T03:49:40;11.25;10.50;7.00
72509;PMS5003;60532;56.114;40.350;2023-04-28T03:51:40;16.75;16.50;10.50
72509;PMS5003;60532;56.114;40.350;2023-04-28T03:53:41;13.50;13.50;9.50
72509;PMS5003;60532;56.114;40.350;2023-04-28T03:55:41;16.00;16.00;10.00
72509;PMS5003;60532;56.114;40.350;2023-04-28T03:57:42;11.75;10.25;7.00
72509;PMS5003;60532;56.114;40.350;2023-04-28T03:59:42;17.75;17.00;10.00
72509;PMS5003;60532;56.114;40.350;2023-04-28T04:01:43;16.00;16.00;10.00
72509;PMS5003;60532;56.114;40.350;2023-04-28T04:03:43;17.00;17.00;10.00
72509;PMS5003;60532;56.114;40.350;2023-04-28T04:05:44;18.25;18.25;10.50
72509;PMS5003;60532;56.114;40.350;2023-04-28T04:07:44;19.50;18.00;13.00
72509;PMS5003;60532;56.114;40.350;2023-04-28T04:09:45;17.50;15.25;10.00
72509;PMS5003;60532;56.114;40.350;2023-04-28T04:11:45;19.00;16.75;10.00
72509;PMS5003;60532;56.114;40.350;2023-04-28T04:13:46;16.50;14.25;6.75
72509;PMS5003;60532;56.114;40.350;2023-04-28T04:15:46;14.50;13.00;9.75
72509;PMS5003;60532;56.114;40.350;2023-04-28T04:17:47;16.50;15.50;11.00
72509;PMS5003;60532;56.114;40.350;2023-04-28T04:19:47;16.00;15.50;11.00
72509;PMS5003;60532;56.114;40.350;2023-04-28T04:21:47;14.75;14.75;10.00
72509;PMS5003;60532;56.114;40.350;2023-04-28T04:23:48;13.75;13.00;7.50
72509;PMS5003;60532;56.114;40.350;2023-04-28T04:25:48;19.00;16.75;10.25
72509;PMS5003;60532;56.114;40.350;2023-04-28T04:27:49;16.75;14.75;10.00
72509;PMS5003;60532;56.114;40.350;2023-04-28T04:29:49;17.00;14.75;10.00
72509;PMS5003;60532;56.114;40.350;2023-04-28T04:31:50;14.75;13.75;8.25
72509;PMS5003;60532;56.114;40.350;2023-04-28T04:33:50;15.75;14.50;8.50
72509;PMS5003;60532;56.114;40.350;2023-04-28T04:35:51;15.75;15.50;10.00
72509;PMS5003;60532;56.114;40.350;2023-04-28T04:37:52;17.20;15.60;9.20
72509;PMS5003;60532;56.114;40.350;2023-04-28T04:39:52;17.25;15.50;10.50
72509;PMS5003;60532;56.114;40.350;2023-04-28T04:41:53;13.00;13.00;7.00
72509;PMS5003;60532;56.114;40.350;2023-04-28T04:43:53;16.75;15.50;10.25
72509;PMS5003;60532;56.114;40.350;2023-04-28T04:45:54;13.00;13.00;9.00
72509;PMS5003;60532;56.114;40.350;2023-04-28T04:47:54;12.50;12.50;7.50
72509;PMS5003;60532;56.114;40.350;2023-04-28T04:49:55;19.50;17.50;9.00
72509;PMS5003;60532;56.114;40.350;2023-04-28T04:51:55;14.00;13.25;10.75
72509;PMS5003;60532;56.114;40.350;2023-04-28T04:53:56;17.75;16.25;11.00
72509;PMS5003;60532;56.114;40.350;2023-04-28T04:55:56;21.75;19.00;12.00
72509;PMS5003;60532;56.114;40.350;2023-04-28T04:57:57;17.75;17.75;10.75
72509;PMS5003;60532;56.114;40.350;2023-04-28T04:59:57;24.00;19.50;12.00
72509;PMS5003;60532;56.114;40.350;2023-04-28T05:01:58;16.75;15.00;11.00
72509;PMS5003;60532;56.114;40.350;2023-04-28T05:03:58;20.25;20.00;11.75
72509;PMS5003;60532;56.114;40.350;2023-04-28T05:05:59;18.50;16.00;10.00
72509;PMS5003;60532;56.114;40.350;2023-04-28T05:08:00;19.80;18.60;13.00
72509;PMS5003;60532;56.114;40.350;2023-04-28T05:10:01;17.40;16.00;10.40
72509;PMS5003;60532;56.114;40.350;2023-04-28T05:12:02;20.00;17.60;9.80
72509;PMS5003;60532;56.114;40.350;2023-04-28T05:14:02;17.25;15.25;10.25
72509;PMS5003;60532;56.114;40.350;2023-04-28T05:16:03;13.50;13.25;9.25
72509;PMS5003;60532;56.114;40.350;2023-04-28T05:18:04;15.25;14.50;8.75
72509;PMS5003;60532;56.114;40.350;2023-04-28T05:20:09;15.40;14.60;9.00
72509;PMS5003;60532;56.114;40.350;2023-04-28T05:22:10;16.25;16.25;10.00
72509;PMS5003;60532;56.114;40.350;2023-04-28T05:24:11;13.40;13.00;7.60
72509;PMS5003;60532;56.114;40.350;2023-04-28T05:26:11;16.75;14.25;10.00
72509;PMS5003;60532;56.114;40.350;2023-04-28T05:28:12;16.40;15.00;10.00
72509;PMS5003;60532;56.114;40.350;2023-04-28T05:30:13;17.00;10.00;7.00
72509;PMS5003;60532;56.114;40.350;2023-04-28T05:32:14;13.80;12.20;8.00
72509;PMS5003;60532;56.114;40.350;2023-04-28T05:34:15;15.00;13.25;8.25
72509;PMS5003;60532;56.114;40.350;2023-04-28T05:36:15;13.50;11.00;7.25
72509;PMS5003;60532;56.114;40.350;2023-04-28T05:38:16;12.50;11.25;8.00
72509;PMS5003;60532;56.114;40.350;2023-04-28T05:40:17;13.50;13.00;9.00
72509;PMS5003;60532;56.114;40.350;2023-04-28T05:42:17;13.25;12.50;8.00
72509;PMS5003;60532;56.114;40.350;2023-04-28T05:44:18;12.75;12.00;6.25
72509;PMS5003;60532;56.114;40.350;2023-04-28T05:46:18;15.25;14.25;9.00
72509;PMS5003;60532;56.114;40.350;2023-04-28T05:48:18;16.00;14.25;7.75
72509;PMS5003;60532;56.114;40.350;2023-04-28T05:50:19;10.67;9.67;7.00
72509;PMS5003;60532;56.114;40.350;2023-04-28T05:52:19;16.25;12.00;7.00
72509;PMS5003;60532;56.114;40.350;2023-04-28T05:54:20;13.00;13.00;7.75
72509;PMS5003;60532;56.114;40.350;2023-04-28T05:56:20;14.00;11.00;7.00
72509;PMS5003;60532;56.114;40.350;2023-04-28T05:58:21;11.25;11.25;7.25
72509;PMS5003;60532;56.114;40.350;2023-04-28T06:00:21;9.00;9.00;5.00
72509;PMS5003;60532;56.114;40.350;2023-04-28T06:02:22;10.00;10.00;7.00
72509;PMS5003;60532;56.114;40.350;2023-04-28T06:04:22;11.75;10.75;7.00
72509;PMS5003;60532;56.114;40.350;2023-04-28T06:06:24;11.00;10.40;6.60
72509;PMS5003;60532;56.114;40.350;2023-04-28T06:08:26;10.40;8.80;6.00
72509;PMS5003;60532;56.114;40.350;2023-04-28T06:10:27;9.00;9.00;5.00
72509;PMS5003;60532;56.114;40.350;2023-04-28T06:12:27;12.00;11.50;6.00
72509;PMS5003;60532;56.114;40.350;2023-04-28T06:14:28;11.75;11.75;6.25
72509;PMS5003;60532;56.114;40.350;2023-04-28T06:16:28;16.00;10.00;6.00
72509;PMS5003;60532;56.114;40.350;2023-04-28T06:18:29;19.75;15.25;8.25
72509;PMS5003;60532;56.114;40.350;2023-04-28T06:20:31;11.80;10.80;4.80
72509;PMS5003;60532;56.114;40.350;2023-04-28T06:22:32;15.25;11.75;7.50
72509;PMS5003;60532;56.114;40.350;2023-04-28T06:24:32;17.00;11.50;6.25
72509;PMS5003;60532;56.114;40.350;2023-04-28T06:26:33;12.00;10.00;7.00
72509;PMS5003;60532;56.114;40.350;2023-04-28T06:28:33;13.50;12.75;8.00
72509;PMS5003;60532;56.114;40.350;2023-04-28T06:30:34;11.75;10.25;7.00
72509;PMS5003;60532;56.114;40.350;2023-04-28T06:32:34;9.75;9.75;7.00
72509;PMS5003;60532;56.114;40.350;2023-04-28T06:34:35;10.25;10.25;7.00
72509;PMS5003;60532;56.114;40.350;2023-04-28T06:36:36;9.20;9.00;6.00
72509;PMS5003;60532;56.114;40.350;2023-04-28T06:38:36;10.25;9.25;6.00
72509;PMS5003;60532;56.114;40.350;2023-04-28T06:40:37;7.50;7.50;5.00
72509;PMS5003;60532;56.114;40.350;2023-04-28T06:42:39;8.60;8.60;5.60
72509;PMS5003;60532;56.114;40.350;2023-04-28T06:44:40;10.25;10.25;6.00
72509;PMS5003;60532;56.114;40.350;2023-04-28T06:46:40;11.25;8.50;6.00
72509;PMS5003;60532;56.114;40.350;2023-04-28T06:48:41;9.75;9.75;7.00
72509;PMS5003;60532;56.114;40.350;2023-04-28T06:50:41;13.00;10.25;6.00
72509;PMS5003;60532;56.114;40.350;2023-04-28T06:52:42;11.00;11.00;7.00
72509;PMS5003;60532;56.114;40.350;2023-04-28T06:54:42;13.25;12.00;7.00
72509;PMS5003;60532;56.114;40.350;2023-04-28T06:56:43;8.75;7.00;4.00
72509;PMS5003;60532;56.114;40.350;2023-04-28T06:58:43;7.25;6.75;5.00
72509;PMS5003;60532;56.114;40.350;2023-04-28T07:00:44;10.75;9.50;6.50
72509;PMS5003;60532;56.114;40.350;2023-04-28T07:02:44;7.00;6.50;5.00
72509;PMS5003;60532;56.114;40.350;2023-04-28T07:04:45;10.00;9.00;6.00
72509;PMS5003;60532;56.114;40.350;2023-04-28T07:06:45;8.25;8.25;6.00
72509;PMS5003;60532;56.114;40.350;2023-04-28T07:08:46;12.00;9.75;7.00
72509;PMS5003;60532;56.114;40.350;2023-04-28T07:10:46;8.00;8.00;6.00
72509;PMS5003;60532;56.114;40.350;2023-04-28T07:12:48;9.00;9.00;5.75
72509;PMS5003;60532;56.114;40.350;2023-04-28T07:14:49;10.80;9.20;6.40
72509;PMS5003;60532;56.114;40.350;2023-04-28T07:16:50;10.60;9.00;6.00
72509;PMS5003;60532;56.114;40.350;2023-04-28T07:18:51;8.75;8.75;6.00
72509;PMS5003;60532;56.114;40.350;2023-04-28T07:20:51;7.75;7.75;5.25
72509;PMS5003;60532;56.114;40.350;2023-04-28T07:22:52;8.75;7.50;4.75
72509;PMS5003;60532;56.114;40.350;2023-04-28T07:24:52;6.50;6.50;4.25
72509;PMS5003;60532;56.114;40.350;2023-04-28T07:26:53;6.75;6.75;5.00
72509;PMS5003;60532;56.114;40.350;2023-04-28T07:28:53;8.75;8.25;4.25
72509;PMS5003;60532;56.114;40.350;2023-04-28T07:30:53;8.00;8.00;5.00
72509;PMS5003;60532;56.114;40.350;2023-04-28T07:32:54;10.00;10.00;5.25
72509;PMS5003;60532;56.114;40.350;2023-04-28T07:34:55;7.50;6.00;3.00
72509;PMS5003;60532;56.114;40.350;2023-04-28T07:36:56;7.80;7.80;5.00
72509;PMS5003;60532;56.114;40.350;2023-04-28T07:38:58;7.80;6.80;4.40
72509;PMS5003;60532;56.114;40.350;2023-04-28T07:40:59;6.20;6.20;4.60
72509;PMS5003;60532;56.114;40.350;2023-04-28T07:42:59;8.50;8.50;5.50
72509;PMS5003;60532;56.114;40.350;2023-04-28T07:45:00;8.00;7.50;5.00
72509;PMS5003;60532;56.114;40.350;2023-04-28T07:47:00;6.50;5.75;4.75
72509;PMS5003;60532;56.114;40.350;2023-04-28T07:49:01;7.20;7.20;4.60
72509;PMS5003;60532;56.114;40.350;2023-04-28T07:51:02;11.00;9.00;5.75
72509;PMS5003;60532;56.114;40.350;2023-04-28T07:53:02;5.50;5.50;3.00
72509;PMS5003;60532;56.114;40.350;2023-04-28T07:55:03;6.00;6.00;4.00
72509;PMS5003;60532;56.114;40.350;2023-04-28T07:57:03;5.25;5.25;4.00
72509;PMS5003;60532;56.114;40.350;2023-04-28T07:59:05;5.80;5.80;3.00
72509;PMS5003;60532;56.114;40.350;2023-04-28T08:01:05;7.50;7.00;4.25
72509;PMS5003;60532;56.114;40.350;2023-04-28T08:03:06;8.25;6.00;5.00
72509;PMS5003;60532;56.114;40.350;2023-04-28T08:05:06;7.25;7.25;5.00
72509;PMS5003;60532;56.114;40.350;2023-04-28T08:07:08;8.60;7.00;5.00
72509;PMS5003;60532;56.114;40.350;2023-04-28T08:09:08;5.40;5.40;3.20
72509;PMS5003;60532;56.114;40.350;2023-04-28T08:11:09;4.25;4.25;3.00
72509;PMS5003;60532;56.114;40.350;2023-04-28T08:13:09;5.50;5.00;3.50
72509;PMS5003;60532;56.114;40.350;2023-04-28T08:15:10;5.75;5.75;4.00
72509;PMS5003;60532;56.114;40.350;2023-04-28T08:17:10;2.00;2.00;1.00
72509;PMS5003;60532;56.114;40.350;2023-04-28T08:19:11;5.60;5.60;3.00
72509;PMS5003;60532;56.114;40.350;2023-04-28T08:21:12;7.25;7.25;4.00
72509;PMS5003;60532;56.114;40.350;2023-04-28T08:23:12;5.50;5.50;4.00
72509;PMS5003;60532;56.114;40.350;2023-04-28T08:25:13;6.00;4.25;3.00
72509;PMS5003;60532;56.114;40.350;2023-04-28T08:27:13;6.00;6.00;4.00
72509;PMS5003;60532;56.114;40.350;2023-04-28T08:29:14;6.00;6.00;4.25
72509;PMS5003;60532;56.114;40.350;2023-04-28T08:31:14;5.00;5.00;3.00
72509;PMS5003;60532;56.114;40.350;2023-04-28T08:33:15;5.25;5.25;3.00
72509;PMS5003;60532;56.114;40.350;2023-04-28T08:35:15;6.00;5.00;3.25
72509;PMS5003;60532;56.114;40.350;2023-04-28T08:37:16;4.00;4.00;2.40
72509;PMS5003;60532;56.114;40.350;2023-04-28T08:39:16;5.50;4.50;2.50
72509;PMS5003;60532;56.114;40.350;2023-04-28T08:41:18;4.40;4.40;3.40
72509;PMS5003;60532;56.114;40.350;2023-04-28T08:43:20;3.40;3.40;2.80
72509;PMS5003;60532;56.114;40.350;2023-04-28T08:45:21;4.75;4.75;3.00
72509;PMS5003;60532;56.114;40.350;2023-04-28T08:47:22;6.20;6.20;4.00
72509;PMS5003;60532;56.114;40.350;2023-04-28T08:49:26;2.25;2.25;1.00
72509;PMS5003;60532;56.114;40.350;2023-04-28T08:51:32;5.40;5.40;4.00
72509;PMS5003;60532;56.114;40.350;2023-04-28T08:53:37;7.40;6.40;3.80
72509;PMS5003;60532;56.114;40.350;2023-04-28T08:55:38;6.60;6.00;4.00
72509;PMS5003;60532;56.114;40.350;2023-04-28T08:57:42;7.00;6.25;4.00
72509;PMS5003;60532;56.114;40.350;2023-04-28T08:59:43;7.00;6.00;4.00
72509;PMS5003;60532;56.114;40.350;2023-04-28T09:01:45;6.25;6.25;5.00
72509;PMS5003;60532;56.114;40.350;2023-04-28T09:03:47;7.80;7.80;4.00
72509;PMS5003;60532;56.114;40.350;2023-04-28T09:05:48;3.25;3.25;2.00
72509;PMS5003;60532;56.114;40.350;2023-04-28T09:07:48;5.25;4.75;3.00
72509;PMS5003;60532;56.114;40.350;2023-04-28T09:10:03;4.80;4.80;3.80
72509;PMS5003;60532;56.114;40.350;2023-04-28T09:12:11;6.80;6.00;4.00
72509;PMS5003;60532;56.114;40.350;2023-04-28T09:14:11;7.00;6.25;4.75
72509;PMS5003;60532;56.114;40.350;2023-04-28T09:16:12;6.40;5.00;3.40
72509;PMS5003;60532;56.114;40.350;2023-04-28T09:18:13;3.50;3.50;2.00
72509;PMS5003;60532;56.114;40.350;2023-04-28T09:20:21;6.40;6.40;4.80
72509;PMS5003;60532;56.114;40.350;2023-04-28T09:22:26;4.60;4.60;3.00
72509;PMS5003;60532;56.114;40.350;2023-04-28T09:26:27;7.75;7.75;5.00
72509;PMS5003;60532;56.114;40.350;2023-04-28T09:28:47;7.00;5.60;4.00
72509;PMS5003;60532;56.114;40.350;2023-04-28T09:30:47;5.25;5.25;3.00
72509;PMS5003;60532;56.114;40.350;2023-04-28T09:33:03;7.50;5.75;3.75
72509;PMS5003;60532;56.114;40.350;2023-04-28T09:35:03;5.00;5.00;4.00
72509;PMS5003;60532;56.114;40.350;2023-04-28T09:37:15;7.00;7.00;4.00
72509;PMS5003;60532;56.114;40.350;2023-04-28T09:39:27;7.00;5.40;3.60
72509;PMS5003;60532;56.114;40.350;2023-04-28T09:41:43;4.40;4.40;3.40
72509;PMS5003;60532;56.114;40.350;2023-04-28T09:43:44;5.60;5.60;4.00
72509;PMS5003;60532;56.114;40.350;2023-04-28T09:45:45;5.00;5.00;3.00
72509;PMS5003;60532;56.114;40.350;2023-04-28T09:47:45;6.00;6.00;3.75
72509;PMS5003;60532;56.114;40.350;2023-04-28T09:49:56;6.20;6.20;3.20
72509;PMS5003;60532;56.114;40.350;2023-04-28T09:52:10;5.40;5.40;3.60
72509;PMS5003;60532;56.114;40.350;2023-04-28T09:54:11;4.80;4.80;3.20
72509;PMS5003;60532;56.114;40.350;2023-04-28T09:56:12;4.40;4.40;3.00
72509;PMS5003;60532;56.114;40.350;2023-04-28T09:58:13;5.00;5.00;4.00
72509;PMS5003;60532;56.114;40.350;2023-04-28T10:00:14;6.25;5.00;4.00
72509;PMS5003;60532;56.114;40.350;2023-04-28T10:02:16;6.80;4.20;2.60
72509;PMS5003;60532;56.114;40.350;2023-04-28T10:04:17;4.00;4.00;3.00
72509;PMS5003;60532;56.114;40.350;2023-04-28T10:06:17;4.00;4.00;3.00
72509;PMS5003;60532;56.114;40.350;2023-04-28T10:08:19;6.25;5.00;2.50
72509;PMS5003;60532;56.114;40.350;2023-04-28T10:10:19;3.40;2.00;0.80
72509;PMS5003;60532;56.114;40.350;2023-04-28T10:12:20;3.20;2.40;1.00
72509;PMS5003;60532;56.114;40.350;2023-04-28T10:14:20;4.00;4.00;3.00
72509;PMS5003;60532;56.114;40.350;2023-04-28T10:16:22;5.20;5.20;3.00
72509;PMS5003;60532;56.114;40.350;2023-04-28T10:18:23;5.00;4.60;3.60
72509;PMS5003;60532;56.114;40.350;2023-04-28T10:20:24;7.00;7.00;4.00
72509;PMS5003;60532;56.114;40.350;2023-04-28T10:27:01;3.80;3.80;3.40
72509;PMS5003;60532;56.114;40.350;2023-04-28T10:29:03;8.40;5.20;3.60
72509;PMS5003;60532;56.114;40.350;2023-04-28T10:31:10;5.50;3.50;3.00
72509;PMS5003;60532;56.114;40.350;2023-04-28T10:37:27;6.00;4.60;1.60
72509;PMS5003;60532;56.114;40.350;2023-04-28T10:40:03;6.20;5.60;4.00
72509;PMS5003;60532;56.114;40.350;2023-04-28T10:42:02;9.00;6.00;4.00
72509;PMS5003;60532;56.114;40.350;2023-04-28T10:46:21;5.00;5.00;2.80
72509;PMS5003;60532;56.114;40.350;2023-04-28T10:48:22;4.25;4.25;3.00
72509;PMS5003;60532;56.114;40.350;2023-04-28T10:53:01;5.80;5.80;3.60
72509;PMS5003;60532;56.114;40.350;2023-04-28T10:57:20;5.00;5.00;3.00
72509;PMS5003;60532;56.114;40.350;2023-04-28T10:59:25;5.20;5.20;4.00
72509;PMS5003;60532;56.114;40.350;2023-04-28T11:01:27;4.80;4.80;3.40
72509;PMS5003;60532;56.114;40.350;2023-04-28T11:06:09;4.60;4.40;3.40
72509;PMS5003;60532;56.114;40.350;2023-04-28T11:10:18;6.20;4.80;3.00
72509;PMS5003;60532;56.114;40.350;2023-04-28T11:12:18;4.75;4.00;3.00
72509;PMS5003;60532;56.114;40.350;2023-04-28T11:16:20;4.00;4.00;3.00
72509;PMS5003;60532;56.114;40.350;2023-04-28T11:18:21;4.80;4.80;2.40
72509;PMS5003;60532;56.114;40.350;2023-04-28T11:20:22;4.60;4.60;3.00
72509;PMS5003;60532;56.114;40.350;2023-04-28T11:22:23;5.75;5.75;3.00
72509;PMS5003;60532;56.114;40.350;2023-04-28T11:24:25;5.00;5.00;3.80
72509;PMS5003;60532;56.114;40.350;2023-04-28T11:26:44;4.00;4.00;2.60
72509;PMS5003;60532;56.114;40.350;2023-04-28T11:30:49;4.00;4.00;3.00
72509;PMS5003;60532;56.114;40.350;2023-04-28T11:32:49;0.50;0.50;0.00
72509;PMS5003;60532;56.114;40.350;2023-04-28T11:34:50;3.40;3.00;2.00
72509;PMS5003;60532;56.114;40.350;2023-04-28T11:36:51;5.00;5.00;3.00
72509;PMS5003;60532;56.114;40.350;2023-04-28T11:38:51;4.00;4.00;2.00
72509;PMS5003;60532;56.114;40.350;2023-04-28T11:40:58;4.75;4.75;3.00
72509;PMS5003;60532;56.114;40.350;2023-04-28T11:42:58;4.40;4.40;2.00
72509;PMS5003;60532;56.114;40.350;2023-04-28T11:44:59;6.00;5.25;3.25
72509;PMS5003;60532;56.114;40.350;2023-04-28T11:47:00;5.50;4.25;3.25
72509;PMS5003;60532;56.114;40.350;2023-04-28T11:49:04;5.00;5.00;3.00
72509;PMS5003;60532;56.114;40.350;2023-04-28T11:51:05;4.00;3.60;2.60
72509;PMS5003;60532;56.114;40.350;2023-04-28T11:53:05;5.50;4.00;2.00